Time;durP1;ratioP1;P1;durP2;ratioP2;P2;SDS_P1;SDS_P2;PMS_P1;PMS_P2;Temp;Humidity;BMP_temperature;BMP_pressure;BME280_temperature;BME280_humidity;BME280_pressure;Samples;Min_cycle;Max_cycle;Signal;HPM_P1;HPM_P2
2021/11/12 00:03:59;;;;;;;20.48;15.20;;;5.60;90.90;;;;;;5134492;27;20542;-67
2021/11/12 00:14:46;;;;;;;19.95;14.23;;;5.50;91.30;;;;;;5073034;28;20243;-66
2021/11/12 00:17:14;;;;;;;22.13;14.73;;;5.50;91.20;;;;;;5089779;28;20554;-66
2021/11/12 00:19:44;;;;;;;24.80;14.38;;;5.50;91.40;;;;;;5093143;28;20193;-66
2021/11/12 00:22:17;;;;;;;18.58;13.20;;;5.40;91.40;;;;;;5091011;28;20189;-66
2021/11/12 00:24:44;;;;;;;18.05;14.10;;;5.40;91.00;;;;;;5092488;28;20545;-67
2021/11/12 00:27:12;;;;;;;20.08;12.50;;;5.50;91.00;;;;;;5075289;28;20185;-66
2021/11/12 00:29:45;;;;;;;23.48;14.43;;;5.50;90.80;;;;;;5072869;28;20186;-66
2021/11/12 00:32:21;;;;;;;16.83;13.05;;;5.60;90.60;;;;;;5089858;28;20753;-66
2021/11/12 00:35:03;;;;;;;17.30;12.60;;;5.60;90.40;;;;;;5092964;28;20189;-66
2021/11/12 00:37:46;;;;;;;19.40;13.70;;;5.60;90.40;;;;;;5073308;28;20187;-66
2021/11/12 00:40:20;;;;;;;17.73;13.20;;;5.70;90.60;;;;;;5076836;28;20217;-69
2021/11/12 00:45:47;;;;;;;16.35;12.93;;;5.70;90.30;;;;;;5068981;28;20190;-67
2021/11/12 00:48:17;;;;;;;19.58;13.52;;;5.80;90.20;;;;;;5092627;28;20254;-66
2021/11/12 00:53:44;;;;;;;19.83;14.93;;;5.80;90.10;;;;;;5068633;28;20194;-66
2021/11/12 00:56:17;;;;;;;24.08;14.25;;;5.90;90.00;;;;;;5082877;28;20655;-66
2021/11/12 00:58:50;;;;;;;15.40;11.95;;;5.90;89.70;;;;;;5092500;28;20616;-66
2021/11/12 01:01:19;;;;;;;19.48;12.80;;;5.90;89.90;;;;;;5080454;28;20217;-66
2021/11/12 01:03:47;;;;;;;19.48;13.98;;;6.00;90.00;;;;;;5071977;28;20653;-66
2021/11/12 01:06:15;;;;;;;16.25;12.70;;;6.00;90.20;;;;;;5089551;28;20189;-65
2021/11/12 01:08:44;;;;;;;18.85;13.13;;;6.00;90.50;;;;;;5092258;28;20193;-66
2021/11/12 01:11:19;;;;;;;20.60;14.10;;;5.90;90.40;;;;;;5104982;28;20216;-66
2021/11/12 01:13:47;;;;;;;16.20;13.32;;;6.00;90.40;;;;;;5112735;28;20227;-67
2021/11/12 01:16:20;;;;;;;15.07;11.75;;;6.00;90.30;;;;;;5129526;27;20347;-66
2021/11/12 01:18:50;;;;;;;15.02;12.00;;;6.00;90.30;;;;;;5132924;27;20253;-66
2021/11/12 01:21:19;;;;;;;18.10;13.13;;;5.90;90.50;;;;;;5131875;27;20544;-66
2021/11/12 01:23:51;;;;;;;18.88;14.50;;;5.90;90.80;;;;;;5133015;27;20192;-66
2021/11/12 01:26:19;;;;;;;14.30;12.77;;;5.90;90.60;;;;;;5132579;27;20188;-65
2021/11/12 01:28:47;;;;;;;19.90;12.95;;;5.90;90.90;;;;;;5132346;27;20192;-65
2021/11/12 01:31:15;;;;;;;16.65;10.90;;;5.90;90.80;;;;;;5132781;27;20245;-64
2021/11/12 01:33:43;;;;;;;14.13;12.07;;;5.90;91.00;;;;;;5132884;27;20286;-66
2021/11/12 01:36:23;;;;;;;17.48;11.20;;;5.90;90.80;;;;;;5132394;27;20192;-66
2021/11/12 01:38:54;;;;;;;16.42;11.73;;;5.90;90.80;;;;;;5132267;27;20192;-67
2021/11/12 01:41:24;;;;;;;14.90;10.73;;;5.90;90.80;;;;;;5132238;27;20268;-66
2021/11/12 01:43:56;;;;;;;19.90;13.27;;;5.90;90.90;;;;;;5132608;27;20579;-66
2021/11/12 01:46:43;;;;;;;16.15;11.60;;;5.90;91.10;;;;;;5132395;27;20219;-67
2021/11/12 01:49:26;;;;;;;16.83;10.90;;;5.90;90.90;;;;;;5111886;28;20675;-66
2021/11/12 01:51:56;;;;;;;13.55;11.38;;;5.90;90.90;;;;;;5114638;27;20710;-66
2021/11/12 02:00:14;;;;;;;16.75;11.98;;;6.00;90.80;;;;;;5068522;28;20194;-66
2021/11/12 02:02:43;;;;;;;15.75;12.98;;;6.00;90.40;;;;;;5118440;27;20658;-66
2021/11/12 02:05:13;;;;;;;17.95;12.38;;;5.90;90.60;;;;;;5132164;27;20582;-66
2021/11/12 02:07:41;;;;;;;20.00;12.63;;;6.00;90.90;;;;;;5132472;28;20523;-66
2021/11/12 02:10:14;;;;;;;22.60;13.50;;;6.00;91.00;;;;;;5131518;28;20295;-67
2021/11/12 02:12:51;;;;;;;16.65;12.45;;;6.00;91.00;;;;;;5132360;28;20342;-67
2021/11/12 02:15:18;;;;;;;39.33;13.02;;;6.10;90.90;;;;;;5131875;27;20184;-66
2021/11/12 02:17:53;;;;;;;23.00;13.60;;;6.10;91.00;;;;;;5132552;28;20188;-66
2021/11/12 02:20:26;;;;;;;19.60;13.50;;;6.00;91.00;;;;;;5131870;28;20566;-66
2021/11/12 02:22:59;;;;;;;17.65;12.13;;;6.00;91.30;;;;;;5132264;28;20199;-66
2021/11/12 02:25:28;;;;;;;20.95;12.63;;;6.00;91.50;;;;;;5131689;27;20227;-66
2021/11/12 02:28:01;;;;;;;16.40;13.23;;;6.00;91.30;;;;;;5132083;28;20631;-66
2021/11/12 02:30:30;;;;;;;19.00;12.30;;;6.00;91.40;;;;;;5131780;28;20188;-66
2021/11/12 02:32:59;;;;;;;16.25;12.50;;;5.90;91.60;;;;;;5132187;28;20188;-66
2021/11/12 02:35:28;;;;;;;23.58;12.43;;;5.90;91.10;;;;;;5131610;28;20187;-66
2021/11/12 02:37:57;;;;;;;19.45;12.00;;;5.90;90.90;;;;;;5132118;27;20188;-66
2021/11/12 02:40:24;;;;;;;17.60;12.23;;;5.90;90.80;;;;;;5131664;27;20926;-66
2021/11/12 02:42:54;;;;;;;17.75;12.48;;;5.90;91.20;;;;;;5132124;27;20200;-66
2021/11/12 02:45:21;;;;;;;17.52;13.52;;;5.90;91.40;;;;;;5131367;27;20188;-66
2021/11/12 02:47:51;;;;;;;24.80;12.88;;;5.90;90.90;;;;;;5134918;27;20600;-67
2021/11/12 02:50:20;;;;;;;20.38;12.52;;;5.80;91.50;;;;;;5135361;27;20192;-66
2021/11/12 02:52:57;;;;;;;13.77;11.88;;;5.80;91.60;;;;;;5135754;27;20199;-66
2021/11/12 02:55:30;;;;;;;15.48;12.20;;;5.70;91.80;;;;;;5135669;27;20192;-66
2021/11/12 02:58:01;;;;;;;15.00;10.93;;;5.70;92.00;;;;;;5135768;27;20635;-66
2021/11/12 03:00:29;;;;;;;17.35;11.63;;;5.60;92.20;;;;;;5135302;27;20191;-66
2021/11/12 03:02:58;;;;;;;22.65;11.82;;;5.60;92.30;;;;;;5135329;27;20242;-66
2021/11/12 03:05:26;;;;;;;16.17;12.70;;;5.60;92.40;;;;;;5135331;27;20268;-66
2021/11/12 03:08:00;;;;;;;13.77;10.32;;;5.60;92.40;;;;;;5135213;27;20201;-66
2021/11/12 03:10:28;;;;;;;18.88;11.85;;;5.70;92.40;;;;;;5135022;27;20640;-66
2021/11/12 03:12:56;;;;;;;24.55;12.13;;;5.70;92.10;;;;;;5135512;27;20188;-66
2021/11/12 03:15:24;;;;;;;17.08;12.63;;;5.70;92.20;;;;;;5135014;27;20184;-65
2021/11/12 03:17:55;;;;;;;18.55;11.80;;;5.80;92.10;;;;;;5135052;27;20237;-65
2021/11/12 03:20:25;;;;;;;13.45;11.75;;;5.80;91.90;;;;;;5134446;27;20350;-65
2021/11/12 03:22:56;;;;;;;20.75;12.27;;;5.80;91.30;;;;;;5135217;27;20196;-65
2021/11/12 03:25:31;;;;;;;18.98;12.90;;;5.80;91.20;;;;;;5134992;27;20269;-65
2021/11/12 03:28:09;;;;;;;22.52;10.95;;;5.80;91.20;;;;;;5135206;27;20707;-65
2021/11/12 03:50:13;;;;;;;20.55;10.15;;;5.70;91.00;;;;;;5134827;27;20333;-66
2021/11/12 04:01:31;;;;;;;16.90;8.63;;;5.60;91.20;;;;;;5134596;27;20332;-66
2021/11/12 04:03:55;;;;;;;13.43;9.48;;;5.60;90.90;;;;;;5134147;27;20188;-66
2021/11/12 04:06:37;;;;;;;22.30;9.38;;;5.50;91.10;;;;;;5134807;27;20192;-66
2021/11/12 04:17:39;;;;;;;12.90;9.48;;;5.50;91.60;;;;;;5134096;27;20191;-66
2021/11/12 04:20:36;;;;;;;19.10;9.50;;;5.50;91.80;;;;;;5134453;27;20646;-66
2021/11/12 05:10:10;;;;;;;10.02;8.90;;;5.40;91.40;;;;;;5112116;28;20223;-66
2021/11/12 05:12:51;;;;;;;19.45;8.52;;;5.40;91.20;;;;;;5115300;27;20284;-66
2021/11/12 05:34:45;;;;;;;9.90;8.90;;;5.30;92.10;;;;;;5132208;27;20693;-66
2021/11/12 05:45:46;;;;;;;17.60;9.68;;;5.40;92.10;;;;;;5133084;27;20676;-66
2021/11/12 05:51:12;;;;;;;10.35;8.15;;;5.40;91.90;;;;;;5132665;27;20256;-66
2021/11/12 05:56:26;;;;;;;14.02;9.27;;;5.40;91.90;;;;;;5132646;27;20696;-66
2021/11/12 05:58:53;;;;;;;12.07;8.90;;;5.50;91.60;;;;;;5132418;27;20658;-66
2021/11/12 06:01:20;;;;;;;13.15;10.32;;;5.50;91.30;;;;;;5131929;28;20268;-66
2021/11/12 06:03:48;;;;;;;14.63;9.98;;;5.50;91.40;;;;;;5132594;28;20195;-65
2021/11/12 06:06:15;;;;;;;16.13;9.15;;;5.50;91.40;;;;;;5132494;28;20185;-66
2021/11/12 06:08:42;;;;;;;21.80;10.88;;;5.50;91.50;;;;;;5132741;27;20196;-66
2021/11/12 06:11:10;;;;;;;11.52;9.70;;;5.50;91.60;;;;;;5131493;28;20216;-66
2021/11/12 06:13:41;;;;;;;11.25;8.80;;;5.50;91.70;;;;;;5132181;28;20242;-66
2021/11/12 06:16:12;;;;;;;11.57;10.10;;;5.50;91.80;;;;;;5132481;28;20194;-65
2021/11/12 06:18:42;;;;;;;13.15;9.23;;;5.60;92.20;;;;;;5132609;27;20229;-66
2021/11/12 06:21:11;;;;;;;10.90;9.25;;;5.60;91.40;;;;;;5133046;27;20599;-66
2021/11/12 06:23:39;;;;;;;12.90;10.50;;;5.60;91.40;;;;;;5136554;27;20263;-67
2021/11/12 06:26:06;;;;;;;10.48;9.25;;;5.70;91.20;;;;;;5137142;27;20188;-65
2021/11/12 06:28:35;;;;;;;9.95;8.95;;;5.70;90.70;;;;;;5136753;27;20188;-66
2021/11/12 06:31:04;;;;;;;11.07;9.65;;;5.70;90.90;;;;;;5137035;27;20196;-67
2021/11/12 06:33:31;;;;;;;10.20;9.13;;;5.70;91.10;;;;;;5136498;27;20180;-67
2021/11/12 06:36:00;;;;;;;11.65;10.20;;;5.70;91.20;;;;;;5136629;27;20650;-67
2021/11/12 06:38:31;;;;;;;9.93;8.93;;;5.70;91.30;;;;;;5136238;27;20192;-65
2021/11/12 06:41:01;;;;;;;11.60;9.90;;;5.70;91.40;;;;;;5136593;27;20214;-66
2021/11/12 06:43:34;;;;;;;12.93;9.20;;;5.70;91.30;;;;;;5136338;27;20234;-66
2021/11/12 06:51:33;;;;;;;14.10;9.55;;;5.80;90.90;;;;;;5136243;27;20188;-66
2021/11/12 06:54:01;;;;;;;12.75;10.05;;;5.80;91.00;;;;;;5133365;27;20279;-66
2021/11/12 06:56:28;;;;;;;36.40;10.10;;;5.80;90.90;;;;;;5133792;27;20234;-66
2021/11/12 06:58:55;;;;;;;14.30;9.75;;;5.80;90.70;;;;;;5133144;27;20260;-67
2021/11/12 07:01:24;;;;;;;12.30;9.75;;;5.70;90.80;;;;;;5132105;27;20176;-66
2021/11/12 07:03:53;;;;;;;15.75;11.30;;;5.70;90.90;;;;;;5133795;27;20556;-65
2021/11/12 07:06:21;;;;;;;10.40;9.30;;;5.70;91.00;;;;;;5133921;27;20267;-67
2021/11/12 07:08:48;;;;;;;17.17;10.88;;;5.70;91.00;;;;;;5134041;27;20200;-67
2021/11/12 07:11:16;;;;;;;14.75;9.13;;;5.70;90.90;;;;;;5133796;27;20687;-66
2021/11/12 07:13:43;;;;;;;12.93;9.60;;;5.60;91.00;;;;;;5133517;27;20189;-66
2021/11/12 07:16:10;;;;;;;10.82;9.20;;;5.70;91.20;;;;;;5134201;27;20245;-66
2021/11/12 07:18:37;;;;;;;11.25;9.35;;;5.70;91.50;;;;;;5133607;27;20643;-66
2021/11/12 07:21:06;;;;;;;11.15;8.95;;;5.80;91.50;;;;;;5134380;27;20623;-67
2021/11/12 07:23:34;;;;;;;10.85;9.63;;;5.80;91.40;;;;;;5129624;27;20216;-67
2021/11/12 07:26:01;;;;;;;11.00;10.00;;;5.90;91.30;;;;;;5134209;27;20192;-66
2021/11/12 07:28:30;;;;;;;11.30;9.63;;;6.00;91.30;;;;;;5133824;27;20277;-67
2021/11/12 07:30:59;;;;;;;10.65;9.55;;;6.00;91.10;;;;;;5126814;27;20191;-67
2021/11/12 07:33:26;;;;;;;11.43;9.48;;;6.10;91.10;;;;;;5133008;27;20557;-66
2021/11/12 07:35:58;;;;;;;13.05;10.80;;;6.10;90.80;;;;;;5133704;27;20192;-66
2021/11/12 07:38:30;;;;;;;13.10;8.55;;;6.20;90.70;;;;;;5133142;27;20528;-67
2021/11/12 07:41:15;;;;;;;11.90;9.15;;;6.20;91.00;;;;;;5130590;27;20184;-67
2021/11/12 07:46:33;;;;;;;12.70;9.77;;;6.20;90.50;;;;;;5129190;27;20275;-67
2021/11/12 07:49:04;;;;;;;10.60;8.55;;;6.20;90.30;;;;;;5121688;27;20184;-66
2021/11/12 07:51:32;;;;;;;13.60;9.68;;;6.20;90.30;;;;;;5131630;27;20227;-67
2021/11/12 07:54:04;;;;;;;10.23;8.27;;;6.30;90.40;;;;;;5131260;27;20212;-67
2021/11/12 07:56:34;;;;;;;10.48;8.90;;;6.30;90.30;;;;;;5130109;27;20217;-66
2021/11/12 07:59:06;;;;;;;10.05;8.82;;;6.30;90.30;;;;;;5132703;27;20562;-66
2021/11/12 08:01:44;;;;;;;13.00;8.38;;;6.40;90.10;;;;;;5128230;27;20188;-66
2021/11/12 08:04:37;;;;;;;18.92;9.50;;;6.40;90.10;;;;;;5132989;27;20210;-67
2021/11/12 08:07:09;;;;;;;13.50;9.30;;;6.40;88.90;;;;;;5133452;27;20249;-66
2021/11/12 08:09:40;;;;;;;11.68;9.45;;;6.30;88.70;;;;;;5132504;27;20249;-67
2021/11/12 08:12:18;;;;;;;13.13;9.02;;;6.40;89.30;;;;;;5132887;27;20287;-67
2021/11/12 08:15:08;;;;;;;17.85;11.05;;;6.40;89.90;;;;;;5132958;27;20188;-66
2021/11/12 08:17:45;;;;;;;12.48;9.73;;;6.40;88.60;;;;;;5132326;27;20272;-66
2021/11/12 08:20:24;;;;;;;14.60;10.30;;;6.20;89.30;;;;;;5132694;27;20231;-65
2021/11/12 08:23:12;;;;;;;17.00;9.63;;;6.20;90.10;;;;;;5132299;27;20546;-65
2021/11/12 08:25:45;;;;;;;23.88;9.85;;;6.30;89.60;;;;;;5132301;27;20224;-67
2021/11/12 08:31:23;;;;;;;21.65;8.90;;;6.20;89.30;;;;;;5097673;27;20199;-66
2021/11/12 08:33:54;;;;;;;11.80;9.02;;;6.10;89.40;;;;;;5128456;27;20195;-66
2021/11/12 08:36:46;;;;;;;13.25;9.50;;;6.10;90.20;;;;;;5132750;27;20206;-66
2021/11/12 08:39:29;;;;;;;17.30;10.40;;;6.10;90.00;;;;;;5132912;27;20560;-66
2021/11/12 08:42:13;;;;;;;20.10;9.85;;;6.20;90.30;;;;;;5132598;27;20250;-66
2021/11/12 08:44:46;;;;;;;17.23;10.52;;;6.20;90.30;;;;;;5131826;27;20192;-66
2021/11/12 08:47:23;;;;;;;11.85;10.10;;;6.20;90.30;;;;;;5132509;27;20522;-67
2021/11/12 08:50:02;;;;;;;15.05;9.73;;;6.20;90.40;;;;;;5132067;27;20203;-66
2021/11/12 08:52:33;;;;;;;13.80;9.75;;;6.20;89.50;;;;;;5132825;27;20198;-66
2021/11/12 08:55:05;;;;;;;14.73;11.30;;;6.20;89.00;;;;;;5132271;27;20304;-67
2021/11/12 08:57:36;;;;;;;21.38;9.18;;;6.30;90.00;;;;;;5132588;27;20191;-66
2021/11/12 09:00:06;;;;;;;19.95;9.15;;;6.30;89.20;;;;;;5132629;27;20198;-66
2021/11/12 09:02:38;;;;;;;15.10;9.43;;;6.30;88.80;;;;;;5132173;27;20280;-66
2021/11/12 09:05:08;;;;;;;12.50;9.70;;;6.40;89.20;;;;;;5128119;27;20246;-67
2021/11/12 09:07:36;;;;;;;11.90;9.25;;;6.40;88.70;;;;;;5131351;27;20630;-67
2021/11/12 09:10:11;;;;;;;20.00;10.18;;;6.40;89.10;;;;;;5130531;27;20569;-66
2021/11/12 09:12:43;;;;;;;22.52;9.65;;;6.40;88.20;;;;;;5130940;27;20311;-66
2021/11/12 09:15:22;;;;;;;12.38;9.80;;;6.50;88.70;;;;;;5130132;27;20245;-67
2021/11/12 09:17:50;;;;;;;10.82;9.68;;;6.50;88.80;;;;;;5131027;27;20195;-66
2021/11/12 09:20:26;;;;;;;11.82;9.80;;;6.50;88.90;;;;;;5130761;27;20596;-67
2021/11/12 09:22:54;;;;;;;14.70;9.70;;;6.60;89.40;;;;;;5127916;27;20224;-66
2021/11/12 09:25:22;;;;;;;10.35;8.60;;;6.60;88.90;;;;;;5130430;27;20227;-66
2021/11/12 09:27:54;;;;;;;11.18;9.70;;;6.60;88.90;;;;;;5130657;27;20260;-66
2021/11/12 09:30:34;;;;;;;11.60;9.85;;;6.60;89.00;;;;;;5127268;27;20188;-67
2021/11/12 09:33:06;;;;;;;13.30;9.13;;;6.60;89.30;;;;;;5130372;27;20206;-66
2021/11/12 09:35:39;;;;;;;9.75;8.38;;;6.70;88.00;;;;;;5130448;27;20196;-66
2021/11/12 09:38:10;;;;;;;11.43;9.60;;;6.60;88.40;;;;;;5130612;27;20295;-67
2021/11/12 09:40:46;;;;;;;13.82;10.88;;;6.70;89.00;;;;;;5130420;27;20192;-67
2021/11/12 09:43:15;;;;;;;10.85;9.13;;;6.80;89.60;;;;;;5130281;27;20254;-66
2021/11/12 09:45:42;;;;;;;10.80;8.98;;;6.90;89.20;;;;;;5129636;27;20287;-66
2021/11/12 09:48:14;;;;;;;15.90;8.60;;;6.90;88.00;;;;;;5130012;27;20244;-65
2021/11/12 09:50:50;;;;;;;15.35;9.82;;;7.00;87.50;;;;;;5130729;27;20231;-66
2021/11/12 09:53:22;;;;;;;12.05;9.98;;;7.00;87.30;;;;;;5129480;27;20633;-66
2021/11/12 09:55:53;;;;;;;16.00;9.40;;;6.90;87.20;;;;;;5130184;27;20313;-66
2021/11/12 09:58:22;;;;;;;11.35;10.15;;;7.00;86.60;;;;;;5129878;27;20215;-67
2021/11/12 10:00:57;;;;;;;13.05;9.43;;;7.00;87.40;;;;;;5130467;27;20556;-67
2021/11/12 10:03:33;;;;;;;11.50;9.82;;;7.00;87.00;;;;;;5129001;28;20215;-66
2021/11/12 10:06:26;;;;;;;15.88;10.40;;;7.10;87.70;;;;;;5128560;28;20198;-65
2021/11/12 10:08:57;;;;;;;13.15;9.55;;;7.20;86.70;;;;;;5127420;28;20192;-66
2021/11/12 10:11:31;;;;;;;11.50;10.10;;;7.20;86.20;;;;;;5130308;28;20235;-66
2021/11/12 10:14:09;;;;;;;11.38;10.02;;;7.10;86.20;;;;;;5130544;28;20196;-67
2021/11/12 10:16:42;;;;;;;14.35;10.95;;;7.20;87.10;;;;;;5130457;28;20287;-66
2021/11/12 10:19:19;;;;;;;12.65;10.50;;;7.30;87.30;;;;;;5130089;28;20296;-67
2021/11/12 10:21:49;;;;;;;12.52;10.90;;;7.40;88.10;;;;;;5129874;28;20240;-66
2021/11/12 10:24:18;;;;;;;14.02;11.75;;;7.50;87.30;;;;;;5129459;28;20296;-68
2021/11/12 10:26:53;;;;;;;13.32;10.75;;;7.60;86.90;;;;;;5130147;28;20231;-68
2021/11/12 10:29:24;;;;;;;12.10;10.18;;;7.70;86.50;;;;;;5130170;28;20280;-65
2021/11/12 10:31:58;;;;;;;15.20;10.32;;;7.70;86.40;;;;;;5130301;28;20283;-66
2021/11/12 10:34:32;;;;;;;17.48;11.13;;;7.80;85.50;;;;;;5127989;28;20606;-66
2021/11/12 10:37:06;;;;;;;13.57;10.25;;;7.70;85.80;;;;;;5129921;28;20188;-65
2021/11/12 10:39:36;;;;;;;14.88;9.73;;;7.70;85.30;;;;;;5130606;27;21319;-66
2021/11/12 10:42:07;;;;;;;16.02;10.77;;;7.70;85.50;;;;;;5130341;28;20232;-66
2021/11/12 10:44:41;;;;;;;11.35;10.10;;;7.70;85.80;;;;;;5128587;28;20662;-66
2021/11/12 10:47:09;;;;;;;12.00;10.70;;;7.70;86.60;;;;;;5129877;28;20242;-66
2021/11/12 10:49:42;;;;;;;10.82;9.00;;;7.80;87.00;;;;;;5130145;28;20200;-67
2021/11/12 10:52:21;;;;;;;13.55;10.63;;;7.90;86.70;;;;;;5129942;27;20187;-67
2021/11/12 10:54:56;;;;;;;11.52;10.23;;;8.00;86.60;;;;;;5129222;28;20263;-66
2021/11/12 10:57:32;;;;;;;12.10;10.80;;;8.00;86.10;;;;;;5126830;28;20575;-66
2021/11/12 11:00:12;;;;;;;13.40;11.07;;;8.00;85.80;;;;;;5129819;28;20195;-66
2021/11/12 11:02:42;;;;;;;11.52;10.32;;;8.00;86.10;;;;;;5128581;28;20299;-67
2021/11/12 11:05:12;;;;;;;23.45;11.95;;;8.10;85.60;;;;;;5129991;28;20285;-66
2021/11/12 11:07:47;;;;;;;12.65;11.23;;;8.10;85.50;;;;;;5130667;27;20193;-66
2021/11/12 11:10:27;;;;;;;15.90;12.48;;;8.10;85.20;;;;;;5133255;27;20311;-66
2021/11/12 11:13:09;;;;;;;12.40;10.60;;;8.10;84.20;;;;;;5130381;27;20642;-66
2021/11/12 11:15:39;;;;;;;13.27;11.07;;;8.20;84.90;;;;;;5130697;27;20643;-66
2021/11/12 11:18:23;;;;;;;15.25;12.50;;;8.20;85.40;;;;;;5131887;27;20231;-66
2021/11/12 11:21:12;;;;;;;15.75;13.18;;;8.20;85.40;;;;;;5132163;27;20192;-67
2021/11/12 11:23:46;;;;;;;17.33;13.07;;;8.20;85.40;;;;;;5132300;27;20247;-66
2021/11/12 11:26:18;;;;;;;14.93;12.23;;;8.20;85.50;;;;;;5132614;27;20199;-66
2021/11/12 11:28:49;;;;;;;15.05;12.35;;;8.20;85.50;;;;;;5133493;27;20192;-65
2021/11/12 11:31:20;;;;;;;16.70;12.73;;;8.30;86.20;;;;;;5133221;27;20215;-65
2021/11/12 11:33:52;;;;;;;14.50;11.77;;;8.30;85.60;;;;;;5132863;27;20232;-65
2021/11/12 11:36:25;;;;;;;25.10;13.80;;;8.30;85.40;;;;;;5133283;27;20223;-66
2021/11/12 11:39:04;;;;;;;16.83;14.05;;;8.30;85.30;;;;;;5129465;27;20232;-67
2021/11/12 11:41:35;;;;;;;15.95;12.40;;;8.30;85.00;;;;;;5133500;27;20485;-66
2021/11/12 11:44:02;;;;;;;15.90;13.32;;;8.30;86.20;;;;;;5132657;27;20254;-67
2021/11/12 11:46:33;;;;;;;15.93;13.63;;;8.30;84.90;;;;;;5133162;27;20227;-67
2021/11/12 11:49:02;;;;;;;17.50;13.32;;;8.30;84.70;;;;;;5133213;27;20198;-67
2021/11/12 11:51:33;;;;;;;16.80;13.98;;;8.30;83.50;;;;;;5132128;27;20214;-68
2021/11/12 11:54:06;;;;;;;16.83;13.18;;;8.30;84.30;;;;;;5129759;27;20287;-67
2021/11/12 11:56:35;;;;;;;17.50;12.82;;;8.30;84.10;;;;;;5131732;27;20192;-67
2021/11/12 11:59:09;;;;;;;16.73;13.73;;;8.20;83.50;;;;;;5132054;27;20290;-67
2021/11/12 12:01:47;;;;;;;17.27;13.32;;;8.20;84.10;;;;;;5130763;27;20200;-68
2021/11/12 12:04:36;;;;;;;16.35;13.20;;;8.10;84.90;;;;;;5131782;27;20326;-68
2021/11/12 12:07:28;;;;;;;14.73;13.15;;;8.10;85.60;;;;;;5132325;27;20279;-67
2021/11/12 12:10:21;;;;;;;17.17;14.18;;;8.20;86.10;;;;;;5131674;27;20663;-68
2021/11/12 12:12:57;;;;;;;15.73;12.93;;;8.20;86.40;;;;;;5120492;27;20192;-68
2021/11/12 12:15:41;;;;;;;13.60;12.15;;;8.30;86.70;;;;;;5131120;27;20195;-67
2021/11/12 12:18:22;;;;;;;21.05;17.02;;;8.30;86.30;;;;;;5129914;27;20200;-68
2021/11/12 12:33:24;;;;;;;15.40;12.32;;;8.30;85.20;;;;;;5130937;27;20739;-67
2021/11/12 13:22:15;;;;;;;15.55;11.43;;;8.10;86.20;;;;;;5133589;27;20227;-67
2021/11/12 13:24:42;;;;;;;19.30;12.30;;;8.10;86.20;;;;;;5133700;27;20255;-67
2021/11/12 13:27:15;;;;;;;17.83;14.00;;;8.20;86.70;;;;;;5133834;27;20230;-67
2021/11/12 13:29:44;;;;;;;14.15;12.63;;;8.20;87.10;;;;;;5133162;27;20199;-67
2021/11/12 13:32:12;;;;;;;16.77;13.60;;;8.20;87.20;;;;;;5133216;27;20219;-68
2021/11/12 13:34:44;;;;;;;15.52;12.25;;;8.20;86.60;;;;;;5133535;27;20303;-67
2021/11/12 13:37:19;;;;;;;15.55;12.80;;;8.10;86.40;;;;;;5133435;27;20192;-66
2021/11/12 13:40:02;;;;;;;16.88;12.13;;;8.10;85.90;;;;;;5133681;27;20195;-67
2021/11/12 13:42:30;;;;;;;16.17;12.35;;;8.00;86.50;;;;;;5133339;27;20283;-66
2021/11/12 13:44:58;;;;;;;15.38;12.45;;;8.10;87.10;;;;;;5133272;27;20307;-67
2021/11/12 13:47:25;;;;;;;17.30;13.55;;;8.00;87.10;;;;;;5133357;27;20257;-67
2021/11/12 13:49:53;;;;;;;25.20;20.20;;;8.00;86.70;;;;;;5133828;27;20227;-66
2021/11/12 13:52:28;;;;;;;25.45;19.42;;;8.10;86.70;;;;;;5133047;27;20196;-66
2021/11/12 13:55:02;;;;;;;22.23;16.95;;;8.10;86.70;;;;;;5133650;27;20279;-66
2021/11/12 13:57:30;;;;;;;20.25;16.33;;;8.00;86.50;;;;;;5133488;27;20223;-66
2021/11/12 14:00:02;;;;;;;17.77;13.95;;;8.00;86.60;;;;;;5133034;27;20224;-66
2021/11/12 14:02:32;;;;;;;21.48;13.25;;;8.00;86.80;;;;;;5133448;27;20188;-66
2021/11/12 14:05:09;;;;;;;15.70;12.23;;;7.90;87.50;;;;;;5133191;27;20303;-67
2021/11/12 14:07:36;;;;;;;15.20;12.02;;;7.90;88.00;;;;;;5133403;27;20298;-67
2021/11/12 14:10:06;;;;;;;17.10;12.98;;;7.90;87.30;;;;;;5132718;28;20251;-66
2021/11/12 14:12:55;;;;;;;14.80;11.93;;;7.90;87.80;;;;;;5133264;28;20223;-67
2021/11/12 14:15:27;;;;;;;15.73;13.82;;;7.90;87.90;;;;;;5133344;28;20256;-66
2021/11/12 14:18:19;;;;;;;39.70;35.60;;;7.90;87.80;;;;;;5133321;28;20192;-66
2021/11/12 14:20:54;;;;;;;22.55;20.33;;;7.90;87.70;;;;;;5133147;27;20594;-67
2021/11/12 14:23:24;;;;;;;16.60;13.00;;;7.80;87.70;;;;;;5133193;28;20192;-66
2021/11/12 14:28:42;;;;;;;14.60;11.30;;;7.80;87.80;;;;;;5129837;28;20287;-66
2021/11/12 14:31:24;;;;;;;16.70;11.90;;;7.80;87.90;;;;;;5133301;28;20188;-66
2021/11/12 14:34:05;;;;;;;20.65;15.60;;;7.80;88.40;;;;;;5132848;28;20191;-67
2021/11/12 14:36:42;;;;;;;31.80;23.25;;;7.70;88.10;;;;;;5132587;28;20264;-67
2021/11/12 14:39:21;;;;;;;22.13;17.40;;;7.70;88.20;;;;;;5133153;27;20195;-67
2021/11/12 14:44:55;;;;;;;21.52;15.15;;;7.70;88.60;;;;;;5136879;27;20336;-67
2021/11/12 14:47:36;;;;;;;18.10;13.93;;;7.60;89.20;;;;;;5136653;27;20259;-66
2021/11/12 14:50:27;;;;;;;16.42;14.27;;;7.60;89.30;;;;;;5136816;27;20260;-67
2021/11/12 14:53:17;;;;;;;21.02;13.13;;;7.60;89.50;;;;;;5136764;27;20223;-66
2021/11/12 14:55:48;;;;;;;17.55;13.30;;;7.50;90.00;;;;;;5136702;27;20542;-67
2021/11/12 14:58:17;;;;;;;16.27;12.35;;;7.50;90.30;;;;;;5136837;27;20196;-67
2021/11/12 15:00:46;;;;;;;20.85;15.80;;;7.50;90.20;;;;;;5136806;27;20192;-66
2021/11/12 15:03:15;;;;;;;24.70;20.50;;;7.40;90.20;;;;;;5136236;27;20193;-67
2021/11/12 15:05:42;;;;;;;22.00;13.35;;;7.40;90.30;;;;;;5135994;27;20258;-66
2021/11/12 15:08:14;;;;;;;19.77;12.50;;;7.40;90.20;;;;;;5136363;27;20639;-67
2021/11/12 15:10:41;;;;;;;19.10;12.50;;;7.40;90.10;;;;;;5135999;27;20224;-66
2021/11/12 15:13:08;;;;;;;21.67;11.80;;;7.40;90.30;;;;;;5136084;27;20224;-66
2021/11/12 15:15:36;;;;;;;19.55;11.35;;;7.30;90.40;;;;;;5136379;27;20237;-67
2021/11/12 15:18:06;;;;;;;16.15;12.35;;;7.30;90.60;;;;;;5136390;27;20184;-66
2021/11/12 15:20:37;;;;;;;16.58;13.90;;;7.20;90.60;;;;;;5136269;27;20184;-66
2021/11/12 15:31:33;;;;;;;23.38;14.27;;;7.20;91.00;;;;;;5133687;27;20194;-67
2021/11/12 15:34:03;;;;;;;17.80;13.40;;;7.10;91.00;;;;;;5135957;27;20638;-66
2021/11/12 15:36:33;;;;;;;16.92;13.05;;;7.10;91.20;;;;;;5135838;27;20195;-66
2021/11/12 15:39:07;;;;;;;17.80;12.98;;;7.00;91.30;;;;;;5136243;27;20184;-66
2021/11/12 15:41:58;;;;;;;18.75;11.85;;;7.00;91.40;;;;;;5135575;27;20226;-66
2021/11/12 15:44:27;;;;;;;15.77;11.88;;;7.00;91.50;;;;;;5136006;27;20212;-66
2021/11/12 15:47:03;;;;;;;17.25;11.20;;;7.00;91.40;;;;;;5135956;27;20187;-66
2021/11/12 15:49:31;;;;;;;12.95;10.93;;;7.00;91.40;;;;;;5135948;27;20184;-66
2021/11/12 15:52:02;;;;;;;20.30;12.35;;;6.90;91.60;;;;;;5135842;27;20527;-66
2021/11/12 15:57:33;;;;;;;19.90;13.18;;;6.90;91.80;;;;;;5135220;27;20199;-66
2021/11/12 16:00:16;;;;;;;33.83;16.23;;;7.00;91.80;;;;;;5135179;27;20194;-66
2021/11/12 16:03:08;;;;;;;21.17;13.50;;;6.90;91.80;;;;;;5135536;27;20314;-66
2021/11/12 16:08:43;;;;;;;24.77;14.98;;;6.80;92.30;;;;;;5135682;27;20324;-66
2021/11/12 16:11:29;;;;;;;25.30;15.32;;;6.70;92.10;;;;;;5134936;27;20302;-66
2021/11/12 16:14:00;;;;;;;18.33;11.50;;;6.60;92.40;;;;;;5135426;27;20755;-66
2021/11/12 16:19:19;;;;;;;14.05;9.95;;;6.60;92.90;;;;;;5134953;27;20202;-66
2021/11/12 16:27:16;;;;;;;33.45;19.70;;;6.70;92.20;;;;;;5134835;27;20188;-66
2021/11/12 16:29:45;;;;;;;19.50;14.23;;;6.70;91.70;;;;;;5135015;27;20495;-68
2021/11/12 16:32:22;;;;;;;17.33;12.23;;;6.60;92.10;;;;;;5134880;27;20223;-66
2021/11/12 16:34:51;;;;;;;14.35;11.90;;;6.60;92.00;;;;;;5134626;27;20192;-66
2021/11/12 16:37:22;;;;;;;14.82;11.90;;;6.50;92.10;;;;;;5134746;27;20192;-67
2021/11/12 16:39:54;;;;;;;27.23;14.70;;;6.50;91.90;;;;;;5134320;27;20196;-68
2021/11/12 16:45:11;;;;;;;29.80;19.13;;;6.40;92.40;;;;;;5134587;27;20357;-67
2021/11/12 16:47:58;;;;;;;23.52;18.67;;;6.40;92.70;;;;;;5134924;27;20200;-67
2021/11/12 16:50:36;;;;;;;13.10;10.65;;;6.50;93.10;;;;;;5112353;27;20691;-66
2021/11/12 16:53:13;;;;;;;25.55;17.70;;;6.50;92.90;;;;;;5113241;28;20185;-66
2021/11/12 16:58:34;;;;;;;30.17;17.08;;;6.50;92.80;;;;;;5113068;28;20219;-66
2021/11/12 17:04:00;;;;;;;30.45;17.52;;;6.30;93.20;;;;;;5133614;27;20210;-67
2021/11/12 17:06:36;;;;;;;29.02;14.00;;;6.40;93.40;;;;;;5132536;27;20204;-67
2021/11/12 17:09:21;;;;;;;22.30;16.15;;;6.40;93.40;;;;;;5134020;27;20218;-66
2021/11/12 17:11:59;;;;;;;18.63;12.57;;;6.30;93.80;;;;;;5133646;27;20674;-66
2021/11/12 17:15:00;;;;;;;21.55;12.80;;;6.30;94.00;;;;;;5133437;27;20192;-66
2021/11/12 17:17:49;;;;;;;17.13;12.45;;;6.40;94.10;;;;;;5133640;27;20721;-67